createdAt,value
2019-01-20T00:00:09.181Z,-5.00
2019-01-20T00:02:41.157Z,-5.00
2019-01-20T00:05:12.277Z,-5.00
2019-01-20T00:07:42.561Z,-5.00
2019-01-20T00:10:12.899Z,-5.00
2019-01-20T00:12:43.084Z,-5.10
2019-01-20T00:15:13.857Z,-5.10
2019-01-20T00:17:44.013Z,-5.10
2019-01-20T00:20:14.410Z,-5.10
2019-01-20T00:22:44.756Z,-5.10
2019-01-20T00:25:15.007Z,-5.10
2019-01-20T00:27:45.097Z,-5.20
2019-01-20T00:30:15.771Z,-5.20
2019-01-20T00:32:47.043Z,-5.20
2019-01-20T00:35:17.205Z,-5.30
2019-01-20T00:37:47.599Z,-5.20
2019-01-20T00:40:18.686Z,-5.30
2019-01-20T00:42:48.806Z,-5.30
2019-01-20T00:45:19.086Z,-5.30
2019-01-20T00:47:49.242Z,-5.40
2019-01-20T00:50:19.285Z,-5.40
2019-01-20T00:52:49.505Z,-5.40
2019-01-20T00:55:19.691Z,-5.40
2019-01-20T00:57:50.147Z,-5.40
2019-01-20T01:00:23.315Z,-5.40
2019-01-20T01:02:53.715Z,-5.40
2019-01-20T01:05:23.948Z,-5.40
2019-01-20T01:07:54.101Z,-5.40
2019-01-20T01:10:24.233Z,-5.40
2019-01-20T01:12:54.377Z,-5.50
2019-01-20T01:15:24.950Z,-5.60
2019-01-20T01:17:55.110Z,-5.90
2019-01-20T01:20:25.267Z,-5.90
2019-01-20T01:22:55.555Z,-5.90
2019-01-20T01:25:25.605Z,-5.90
2019-01-20T01:27:55.745Z,-5.90
2019-01-20T01:30:26.378Z,-5.80
2019-01-20T01:32:56.481Z,-5.80
2019-01-20T01:35:26.613Z,-5.90
2019-01-20T01:37:56.735Z,-5.90
2019-01-20T01:40:26.805Z,-5.90
2019-01-20T01:42:56.971Z,-6.00
2019-01-20T01:45:27.122Z,-5.90
2019-01-20T01:47:57.244Z,-6.00
2019-01-20T01:50:27.362Z,-6.10
2019-01-20T01:52:57.515Z,-6.00
2019-01-20T01:55:27.692Z,-6.00
2019-01-20T01:57:57.867Z,-5.90
2019-01-20T02:00:27.997Z,-5.90
2019-01-20T02:02:58.248Z,-5.90
2019-01-20T02:05:28.421Z,-5.90
2019-01-20T02:07:58.482Z,-5.90
2019-01-20T02:10:28.558Z,-5.80
2019-01-20T02:12:59.010Z,-5.80
2019-01-20T02:15:29.218Z,-5.90
2019-01-20T02:18:00.469Z,-5.90
2019-01-20T02:20:30.815Z,-5.90
2019-01-20T02:23:01.010Z,-5.90
2019-01-20T02:25:31.261Z,-5.90
2019-01-20T02:28:01.480Z,-5.90
2019-01-20T02:30:32.162Z,-5.90
2019-01-20T02:33:02.299Z,-5.80
2019-01-20T02:35:32.510Z,-5.80
2019-01-20T02:38:02.646Z,-5.90
2019-01-20T02:40:32.921Z,-5.80
2019-01-20T02:43:03.110Z,-5.80
2019-01-20T02:45:33.362Z,-5.90
2019-01-20T02:48:03.585Z,-5.80
2019-01-20T02:50:33.826Z,-5.90
2019-01-20T02:53:04.022Z,-5.90
2019-01-20T02:55:34.283Z,-5.90
2019-01-20T02:58:04.442Z,-5.80
2019-01-20T03:00:34.844Z,-5.80
2019-01-20T03:03:06.008Z,-5.80
2019-01-20T03:05:36.377Z,-5.80
2019-01-20T03:08:06.510Z,-5.80
2019-01-20T03:10:36.780Z,-5.80
2019-01-20T03:13:06.982Z,-5.80
2019-01-20T03:15:37.299Z,-5.80
2019-01-20T03:18:07.761Z,-5.80
2019-01-20T03:20:37.837Z,-5.80
2019-01-20T03:23:08.003Z,-5.80
2019-01-20T03:25:38.198Z,-5.90
2019-01-20T03:28:08.310Z,-5.90
2019-01-20T03:30:38.429Z,-6.00
2019-01-20T03:33:08.491Z,-6.10
2019-01-20T03:35:38.593Z,-6.20
2019-01-20T03:38:08.831Z,-6.20
2019-01-20T03:40:38.903Z,-6.10
2019-01-20T03:43:09.220Z,-6.00
2019-01-20T03:45:39.393Z,-6.00
2019-01-20T03:48:09.548Z,-5.80
2019-01-20T03:50:39.598Z,-5.90
2019-01-20T03:53:10.425Z,-6.00
2019-01-20T03:55:40.761Z,-5.90
2019-01-20T03:58:11.452Z,-5.80
2019-01-20T04:00:41.634Z,-5.70
2019-01-20T04:03:11.938Z,-5.60
2019-01-20T04:05:42.111Z,-5.70
2019-01-20T04:08:12.906Z,-5.60
2019-01-20T04:10:42.970Z,-5.60
2019-01-20T04:13:13.334Z,-5.50
2019-01-20T04:15:43.778Z,-5.50
2019-01-20T04:18:13.922Z,-5.40
2019-01-20T04:20:44.125Z,-5.30
2019-01-20T04:23:14.320Z,-5.30
2019-01-20T04:25:47.638Z,-5.30
2019-01-20T04:28:17.856Z,-5.40
2019-01-20T04:30:47.925Z,-5.40
2019-01-20T04:33:18.217Z,-5.40
2019-01-20T04:35:48.272Z,-5.30
2019-01-20T04:38:18.414Z,-5.30
2019-01-20T04:40:48.579Z,-5.40
2019-01-20T04:43:18.706Z,-5.40
2019-01-20T04:45:48.843Z,-5.20
2019-01-20T04:48:18.978Z,-5.30
2019-01-20T04:50:49.198Z,-5.30
2019-01-20T04:53:19.589Z,-5.20
2019-01-20T04:55:49.857Z,-5.50
2019-01-20T04:58:20.238Z,-5.30
2019-01-20T05:00:50.548Z,-5.40
2019-01-20T05:03:20.749Z,-5.50
2019-01-20T05:05:50.895Z,-5.40
2019-01-20T05:08:21.173Z,-5.40
2019-01-20T05:10:51.618Z,-5.40
2019-01-20T05:13:21.862Z,-5.40
2019-01-20T05:15:51.930Z,-5.40
2019-01-20T05:18:22.165Z,-5.50
2019-01-20T05:20:52.221Z,-5.60
2019-01-20T05:23:22.385Z,-5.70
2019-01-20T05:25:53.386Z,-5.70
2019-01-20T05:28:23.563Z,-5.70
2019-01-20T05:30:53.609Z,-5.80
2019-01-20T05:33:23.798Z,-5.80
2019-01-20T05:35:54.019Z,-6.00
2019-01-20T05:38:24.186Z,-6.00
2019-01-20T05:40:54.657Z,-6.10
2019-01-20T05:43:24.837Z,-6.00
2019-01-20T05:45:55.027Z,-6.10
2019-01-20T05:48:25.098Z,-6.10
2019-01-20T05:50:55.294Z,-6.10
2019-01-20T05:53:25.496Z,-6.10
2019-01-20T05:55:55.739Z,-6.10
2019-01-20T05:58:25.886Z,-6.10
2019-01-20T06:00:56.145Z,-6.30
2019-01-20T06:03:26.403Z,-6.30
2019-01-20T06:05:56.517Z,-6.30
2019-01-20T06:08:26.633Z,-6.20
2019-01-20T06:10:56.732Z,-6.20
2019-01-20T06:13:27.053Z,-6.20
2019-01-20T06:15:57.220Z,-6.20
2019-01-20T06:18:27.537Z,-6.20
2019-01-20T06:20:57.576Z,-6.40
2019-01-20T06:23:28.066Z,-6.40
2019-01-20T06:25:58.221Z,-6.40
2019-01-20T06:28:28.373Z,-6.40
2019-01-20T06:30:58.472Z,-6.40
2019-01-20T06:33:28.623Z,-6.50
2019-01-20T06:35:59.008Z,-6.60
2019-01-20T06:38:29.140Z,-6.60
2019-01-20T06:40:59.202Z,-6.70
2019-01-20T06:43:29.410Z,-6.80
2019-01-20T06:45:59.651Z,-6.70
2019-01-20T06:48:29.777Z,-6.60
2019-01-20T06:50:59.881Z,-6.60
2019-01-20T06:53:29.957Z,-6.50
2019-01-20T06:56:00.327Z,-6.50
2019-01-20T06:58:30.374Z,-6.40
2019-01-20T07:01:00.482Z,-6.40
2019-01-20T07:03:30.655Z,-6.40
2019-01-20T07:06:00.928Z,-6.50
2019-01-20T07:08:31.078Z,-6.40
2019-01-20T07:11:01.226Z,-6.40
2019-01-20T07:13:32.505Z,-6.40
2019-01-20T07:16:02.733Z,-6.40
2019-01-20T07:18:33.006Z,-6.30
2019-01-20T07:21:03.146Z,-6.30
2019-01-20T07:23:33.380Z,-6.30
2019-01-20T07:26:03.738Z,-6.20
2019-01-20T07:28:35.097Z,-6.10
2019-01-20T07:31:05.333Z,-6.10
2019-01-20T07:33:35.532Z,-6.00
2019-01-20T07:36:05.590Z,-6.10
2019-01-20T07:38:35.765Z,-6.10
2019-01-20T07:41:05.989Z,-6.30
2019-01-20T07:43:36.301Z,-6.20
2019-01-20T07:46:06.566Z,-6.20
2019-01-20T07:48:36.698Z,-6.00
2019-01-20T07:51:06.886Z,-5.90
2019-01-20T07:53:37.090Z,-5.70
2019-01-20T07:56:07.339Z,-5.60
2019-01-20T07:58:37.566Z,-5.50
2019-01-20T08:01:07.658Z,-5.30
2019-01-20T08:03:37.798Z,-5.30
2019-01-20T08:06:07.927Z,-5.20
2019-01-20T08:08:38.114Z,-5.20
2019-01-20T08:11:08.295Z,-5.10
2019-01-20T08:13:38.471Z,-5.10
2019-01-20T08:16:08.564Z,-5.10
2019-01-20T08:18:38.760Z,-5.00
2019-01-20T08:21:08.861Z,-4.80
2019-01-20T08:23:39.041Z,-4.70
2019-01-20T08:26:09.258Z,-4.60
2019-01-20T08:28:39.421Z,-4.50
2019-01-20T08:31:09.597Z,-4.40
2019-01-20T08:33:39.697Z,-4.20
2019-01-20T08:36:09.881Z,-4.10
2019-01-20T08:38:39.990Z,-4.00
2019-01-20T08:41:10.247Z,-3.90
2019-01-20T08:43:40.702Z,-3.80
2019-01-20T08:46:51.159Z,-3.80
2019-01-20T08:49:21.372Z,-3.70
2019-01-20T08:51:51.684Z,-3.50
2019-01-20T08:54:21.833Z,-3.40
2019-01-20T08:56:51.949Z,-3.30
2019-01-20T08:59:22.178Z,-3.20
2019-01-20T09:01:52.360Z,-3.20
2019-01-20T09:04:22.526Z,-3.00
2019-01-20T09:06:55.563Z,-2.90
2019-01-20T09:09:25.774Z,-2.80
2019-01-20T09:11:55.872Z,-2.70
2019-01-20T09:14:26.007Z,-2.70
2019-01-20T09:16:56.146Z,-2.80
2019-01-20T09:19:26.330Z,-2.50
2019-01-20T09:21:56.506Z,-2.40
2019-01-20T09:24:26.759Z,-2.20
2019-01-20T09:26:57.060Z,-2.10
2019-01-20T09:29:27.221Z,-2.00
2019-01-20T09:31:57.325Z,-1.90
2019-01-20T09:34:27.656Z,-2.00
2019-01-20T09:36:57.933Z,-1.90
2019-01-20T09:39:28.065Z,-1.90
2019-01-20T09:41:58.277Z,-2.00
2019-01-20T09:44:28.630Z,-1.90
2019-01-20T09:46:58.832Z,-1.70
2019-01-20T09:49:29.158Z,-1.70
2019-01-20T09:51:59.390Z,-1.70
2019-01-20T09:54:29.606Z,-1.90
2019-01-20T09:56:59.767Z,-1.80
2019-01-20T09:59:29.977Z,-1.80
2019-01-20T10:02:00.118Z,-1.90
2019-01-20T10:04:30.311Z,-1.70
2019-01-20T10:07:00.505Z,-1.80
2019-01-20T10:09:30.659Z,-1.80
2019-01-20T10:12:00.878Z,-1.60
2019-01-20T10:14:31.031Z,-1.40
2019-01-20T10:17:01.329Z,-1.10
2019-01-20T10:19:31.654Z,-0.90
2019-01-20T10:22:01.713Z,-0.90
2019-01-20T10:24:31.872Z,-0.90
2019-01-20T10:27:02.269Z,-0.70
2019-01-20T10:29:32.439Z,-0.60
2019-01-20T10:32:02.594Z,-0.70
2019-01-20T10:34:33.464Z,-0.70
2019-01-20T10:37:04.331Z,-0.70
2019-01-20T10:39:34.681Z,-0.60
2019-01-20T10:42:04.990Z,-0.30
2019-01-20T10:44:35.455Z,-0.50
2019-01-20T10:47:05.582Z,-0.50
2019-01-20T10:49:35.941Z,-0.50
2019-01-20T10:52:06.201Z,-0.30
2019-01-20T10:54:36.391Z,-0.20
2019-01-20T10:57:06.562Z,-0.10
2019-01-20T10:59:36.984Z,-0.30
2019-01-20T11:02:07.196Z,-0.30
2019-01-20T11:04:37.349Z,-0.60
2019-01-20T11:07:07.708Z,-0.60
2019-01-20T11:09:38.509Z,-0.50
2019-01-20T11:12:08.837Z,-0.30
2019-01-20T11:14:38.950Z,-0.70
2019-01-20T11:17:09.173Z,-0.70
2019-01-20T11:19:39.259Z,-0.60
2019-01-20T11:22:09.351Z,-0.60
2019-01-20T11:24:39.682Z,-0.80
2019-01-20T11:27:09.980Z,-0.60
2019-01-20T11:29:41.083Z,-0.50
2019-01-20T11:32:11.313Z,-0.40
2019-01-20T11:34:41.538Z,-0.20
2019-01-20T11:37:11.965Z,-0.20
2019-01-20T11:39:42.147Z,0.00
2019-01-20T11:42:12.345Z,0.20
2019-01-20T11:44:42.546Z,0.30
2019-01-20T11:47:12.870Z,0.20
2019-01-20T11:49:42.926Z,0.10
2019-01-20T11:52:12.978Z,0.10
2019-01-20T11:54:43.222Z,0.30
2019-01-20T11:57:14.238Z,-0.10
2019-01-20T11:59:44.588Z,-0.10
2019-01-20T12:02:14.715Z,0.10
2019-01-20T12:04:46.114Z,0.00
2019-01-20T12:07:17.325Z,-0.10
2019-01-20T12:09:47.561Z,0.00
2019-01-20T12:12:17.608Z,0.00
2019-01-20T12:14:47.874Z,-0.20
2019-01-20T12:17:18.007Z,-0.40
2019-01-20T12:19:48.185Z,-0.50
2019-01-20T12:22:18.470Z,-0.60
2019-01-20T12:24:48.645Z,-0.40
2019-01-20T12:27:18.855Z,-0.20
2019-01-20T12:29:51.969Z,-0.30
2019-01-20T12:32:20.874Z,-0.40
2019-01-20T12:34:51.006Z,-0.50
2019-01-20T12:37:21.390Z,-0.40
2019-01-20T12:39:51.609Z,-0.30
2019-01-20T12:42:22.352Z,-0.50
2019-01-20T12:44:52.501Z,-0.40
2019-01-20T12:47:22.717Z,-0.40
2019-01-20T12:49:53.249Z,-0.40
2019-01-20T12:52:23.605Z,-0.40
2019-01-20T12:54:54.094Z,-0.20
2019-01-20T12:57:24.592Z,-0.20
2019-01-20T12:59:54.999Z,-0.30
2019-01-20T13:02:25.404Z,-0.30
2019-01-20T13:04:56.797Z,-0.40
2019-01-20T13:07:27.050Z,-0.40
2019-01-20T13:09:57.311Z,-0.40
2019-01-20T13:12:27.594Z,-0.50
2019-01-20T13:14:57.986Z,-0.60
2019-01-20T13:17:28.322Z,-0.60
2019-01-20T13:19:58.589Z,-0.70
2019-01-20T13:22:28.979Z,-0.70
2019-01-20T13:24:59.286Z,-0.60
2019-01-20T13:27:29.575Z,-0.50
2019-01-20T13:29:59.807Z,-0.50
2019-01-20T13:32:30.121Z,-0.70
2019-01-20T13:35:00.423Z,-0.80
2019-01-20T13:37:30.802Z,-0.70
2019-01-20T13:40:13.689Z,-0.70
2019-01-20T13:42:45.582Z,-0.70
2019-01-20T13:45:15.848Z,-0.70
2019-01-20T13:47:48.849Z,-0.70
2019-01-20T13:50:18.890Z,-0.70
2019-01-20T13:56:29.562Z,-0.70
2019-01-20T13:58:59.891Z,-0.70
2019-01-20T14:01:30.486Z,-0.80
2019-01-20T14:04:00.773Z,-0.80
2019-01-20T14:06:31.122Z,-0.90
2019-01-20T14:09:02.367Z,-1.00
2019-01-20T14:11:34.239Z,-1.10
2019-01-20T14:14:04.455Z,-1.30
2019-01-20T14:16:34.674Z,-1.40
2019-01-20T14:19:05.035Z,-1.30
2019-01-20T14:21:35.873Z,-1.40
2019-01-20T14:24:06.372Z,-1.40
2019-01-20T14:26:36.681Z,-1.50
2019-01-20T14:29:06.910Z,-1.50
2019-01-20T14:31:37.086Z,-1.60
2019-01-20T14:34:07.551Z,-1.60
2019-01-20T14:36:38.088Z,-1.60
2019-01-20T14:39:12.870Z,-1.70
2019-01-20T14:41:43.281Z,-1.70
2019-01-20T14:44:13.976Z,-1.80
2019-01-20T14:46:44.290Z,-1.90
2019-01-20T14:49:14.836Z,-2.10
2019-01-20T14:51:44.925Z,-2.00
2019-01-20T14:54:15.676Z,-2.00
2019-01-20T14:56:45.923Z,-2.10
2019-01-20T14:59:16.177Z,-2.10
2019-01-20T15:01:46.325Z,-2.10
2019-01-20T15:04:16.479Z,-2.00
2019-01-20T15:06:46.642Z,-1.90
2019-01-20T15:09:16.959Z,-1.80
2019-01-20T15:11:47.187Z,-1.80
2019-01-20T15:14:17.439Z,-1.80
2019-01-20T15:16:47.674Z,-1.80
2019-01-20T15:19:17.790Z,-1.80
2019-01-20T15:21:48.056Z,-1.90
2019-01-20T15:24:22.889Z,-1.80
2019-01-20T15:27:05.831Z,-1.80
2019-01-20T15:29:37.285Z,-1.80
2019-01-20T15:32:13.878Z,-1.80
2019-01-20T15:34:50.062Z,-1.80
2019-01-20T15:37:25.722Z,-1.70
2019-01-20T15:39:57.658Z,-1.80
2019-01-20T15:42:30.379Z,-1.80
2019-01-20T15:45:03.530Z,-1.80
2019-01-20T15:47:35.340Z,-1.80
2019-01-20T15:50:16.306Z,-1.80
2019-01-20T15:52:54.140Z,-1.80
2019-01-20T15:55:33.542Z,-1.70
2019-01-20T15:58:04.800Z,-1.70
2019-01-20T16:00:35.302Z,-1.70
2019-01-20T16:03:10.298Z,-1.70
2019-01-20T16:05:43.496Z,-1.70
2019-01-20T16:08:15.431Z,-1.70
2019-01-20T16:10:48.653Z,-1.70
2019-01-20T16:13:24.936Z,-1.70
2019-01-20T16:15:57.546Z,-1.70
2019-01-20T16:18:32.410Z,-1.70
2019-01-20T16:21:08.890Z,-1.70
2019-01-20T16:24:36.718Z,-1.70
2019-01-20T16:27:06.565Z,-1.60
2019-01-20T16:29:36.983Z,-1.60
2019-01-20T16:32:14.663Z,-1.70
2019-01-20T16:34:45.315Z,-1.70
2019-01-20T16:37:28.227Z,-1.70
2019-01-20T16:40:01.534Z,-1.70
2019-01-20T16:42:37.848Z,-1.70
2019-01-20T16:45:14.276Z,-1.60
2019-01-20T16:47:51.303Z,-1.60
2019-01-20T16:50:28.131Z,-1.70
2019-01-20T16:53:01.505Z,-1.70
2019-01-20T16:55:36.934Z,-1.70
2019-01-20T16:58:10.400Z,-1.70
2019-01-20T17:00:42.878Z,-1.70
2019-01-20T17:03:13.244Z,-1.70
2019-01-20T17:05:45.498Z,-1.80
2019-01-20T17:08:35.071Z,-1.80
2019-01-20T17:11:12.470Z,-1.80
2019-01-20T17:13:57.701Z,-1.80
2019-01-20T17:16:39.351Z,-1.90
2019-01-20T17:19:17.664Z,-2.00
2019-01-20T17:21:55.043Z,-2.00
2019-01-20T17:24:39.125Z,-2.10
2019-01-20T17:27:21.288Z,-2.10
2019-01-20T17:30:01.537Z,-2.20
2019-01-20T17:32:44.114Z,-2.20
2019-01-20T17:35:22.879Z,-2.20
2019-01-20T17:38:15.049Z,-2.20
2019-01-20T17:40:49.877Z,-2.20
2019-01-20T17:43:25.541Z,-2.20
2019-01-20T17:46:18.674Z,-2.20
2019-01-20T17:49:16.042Z,-2.20
2019-01-20T17:52:10.080Z,-2.20
2019-01-20T17:54:43.639Z,-2.20
2019-01-20T17:57:21.836Z,-2.20
2019-01-20T18:00:23.323Z,-2.20
2019-01-20T18:02:59.612Z,-2.20
2019-01-20T18:05:35.419Z,-2.20
2019-01-20T18:08:06.191Z,-2.20
2019-01-20T18:10:36.739Z,-2.20
2019-01-20T18:13:07.396Z,-2.30
2019-01-20T18:15:38.425Z,-2.30
2019-01-20T18:18:08.840Z,-2.30
2019-01-20T18:20:39.083Z,-2.30
2019-01-20T18:23:09.355Z,-2.30
2019-01-20T18:25:39.601Z,-2.30
2019-01-20T18:28:10.332Z,-2.40
2019-01-20T18:30:40.683Z,-2.30
2019-01-20T18:33:11.009Z,-2.30
2019-01-20T18:35:41.300Z,-2.30
2019-01-20T18:38:11.771Z,-2.30
2019-01-20T18:40:42.023Z,-2.30
2019-01-20T18:43:12.539Z,-2.30
2019-01-20T18:45:42.882Z,-2.30
2019-01-20T18:48:13.158Z,-2.40
2019-01-20T18:50:43.599Z,-2.30
2019-01-20T18:53:15.026Z,-2.40
2019-01-20T18:55:45.351Z,-2.50
2019-01-20T18:58:15.671Z,-2.60
2019-01-20T19:00:51.130Z,-2.60
2019-01-20T19:03:21.683Z,-2.70
2019-01-20T19:05:52.110Z,-2.80
2019-01-20T19:08:22.414Z,-2.80
2019-01-20T19:10:52.765Z,-2.90
2019-01-20T19:13:23.306Z,-3.00
2019-01-20T19:15:53.767Z,-3.00
2019-01-20T19:18:23.999Z,-3.10
2019-01-20T19:20:54.335Z,-3.10
2019-01-20T19:23:24.738Z,-3.10
2019-01-20T19:25:55.139Z,-3.20
2019-01-20T19:28:25.470Z,-3.20
2019-01-20T19:30:55.924Z,-3.30
2019-01-20T19:33:26.279Z,-3.30
2019-01-20T19:35:56.777Z,-3.40
2019-01-20T19:38:27.273Z,-3.40
2019-01-20T19:40:59.383Z,-3.40
2019-01-20T19:43:29.651Z,-3.50
2019-01-20T19:45:59.941Z,-3.50
2019-01-20T19:48:30.410Z,-3.60
2019-01-20T19:51:00.862Z,-3.60
2019-01-20T19:53:31.231Z,-3.60
2019-01-20T19:56:01.754Z,-3.70
2019-01-20T19:58:32.182Z,-3.70
2019-01-20T20:01:02.559Z,-3.80
2019-01-20T20:03:33.062Z,-3.80
2019-01-20T20:06:03.482Z,-3.80
2019-01-20T20:08:34.074Z,-3.80
2019-01-20T20:11:04.664Z,-3.80
2019-01-20T20:13:35.063Z,-3.80
2019-01-20T20:16:05.430Z,-3.80
2019-01-20T20:18:35.763Z,-3.80
2019-01-20T20:21:06.146Z,-3.80
2019-01-20T20:23:36.541Z,-3.70
2019-01-20T20:26:06.987Z,-3.60
2019-01-20T20:28:37.435Z,-3.50
2019-01-20T20:31:07.759Z,-3.40
2019-01-20T20:33:38.113Z,-3.40
2019-01-20T20:36:08.539Z,-3.30
2019-01-20T20:38:38.882Z,-3.30
2019-01-20T20:41:09.118Z,-3.20
2019-01-20T20:43:39.407Z,-3.10
2019-01-20T20:46:09.643Z,-3.10
2019-01-20T20:48:39.758Z,-3.00
2019-01-20T20:51:09.959Z,-3.10
2019-01-20T20:53:40.141Z,-3.00
2019-01-20T20:56:10.318Z,-3.00
2019-01-20T20:58:40.484Z,-3.00
2019-01-20T21:01:10.819Z,-2.90
2019-01-20T21:03:41.931Z,-2.90
2019-01-20T21:06:12.305Z,-2.90
2019-01-20T21:08:42.686Z,-2.80
2019-01-20T21:11:14.658Z,-2.80
2019-01-20T21:13:45.107Z,-2.80
2019-01-20T21:16:15.750Z,-2.80
2019-01-20T21:18:46.186Z,-2.80
2019-01-20T21:21:16.618Z,-2.70
2019-01-20T21:23:46.903Z,-2.70
2019-01-20T21:26:17.565Z,-2.60
2019-01-20T21:28:47.960Z,-2.60
2019-01-20T21:31:18.526Z,-2.60
2019-01-20T21:33:49.036Z,-2.60
2019-01-20T21:36:19.608Z,-2.50
2019-01-20T21:38:50.198Z,-2.50
2019-01-20T21:41:20.545Z,-2.50
2019-01-20T21:43:50.843Z,-2.40
2019-01-20T21:46:22.303Z,-2.40
2019-01-20T21:48:52.466Z,-2.40
2019-01-20T21:51:22.660Z,-2.30
2019-01-20T21:53:52.899Z,-2.40
2019-01-20T21:56:22.974Z,-2.30
2019-01-20T21:58:53.319Z,-2.30
2019-01-20T22:01:23.484Z,-2.30
2019-01-20T22:04:00.926Z,-2.30
2019-01-20T22:06:31.087Z,-2.30
2019-01-20T22:09:01.342Z,-2.30
2019-01-20T22:11:33.166Z,-2.30
2019-01-20T22:14:03.475Z,-2.30
2019-01-20T22:16:33.821Z,-2.30
2019-01-20T22:19:04.042Z,-2.30
2019-01-20T22:21:34.247Z,-2.40
2019-01-20T22:24:04.566Z,-2.40
2019-01-20T22:26:34.838Z,-2.40
2019-01-20T22:29:05.139Z,-2.50
2019-01-20T22:31:38.235Z,-2.50
2019-01-20T22:34:08.432Z,-2.50
2019-01-20T22:36:38.620Z,-2.60
2019-01-20T22:39:09.208Z,-2.60
2019-01-20T22:41:39.587Z,-2.70
2019-01-20T22:44:09.824Z,-2.80
2019-01-20T22:46:40.230Z,-2.80
2019-01-20T22:49:12.174Z,-2.90
2019-01-20T22:51:42.534Z,-3.00
2019-01-20T22:54:12.900Z,-3.00
2019-01-20T22:56:43.170Z,-3.10
2019-01-20T22:59:13.335Z,-3.10
2019-01-20T23:01:43.659Z,-3.10
2019-01-20T23:04:17.070Z,-3.10
2019-01-20T23:06:47.331Z,-3.20
2019-01-20T23:09:17.569Z,-3.20
2019-01-20T23:11:47.799Z,-3.30
2019-01-20T23:14:18.036Z,-3.30
2019-01-20T23:16:48.307Z,-3.30
2019-01-20T23:19:19.013Z,-3.30
2019-01-20T23:21:49.298Z,-3.40
2019-01-20T23:24:19.597Z,-3.40
2019-01-20T23:26:49.921Z,-3.40
2019-01-20T23:29:20.283Z,-3.40
2019-01-20T23:31:50.463Z,-3.40
2019-01-20T23:34:20.769Z,-3.50
2019-01-20T23:36:51.062Z,-3.50
2019-01-20T23:39:21.188Z,-3.50
2019-01-20T23:41:51.490Z,-3.50
2019-01-20T23:44:21.766Z,-3.40
2019-01-20T23:46:51.957Z,-3.40
2019-01-20T23:49:22.167Z,-3.40
2019-01-20T23:51:52.502Z,-3.30
2019-01-20T23:54:22.722Z,-3.30
2019-01-20T23:56:52.874Z,-3.20
2019-01-20T23:59:23.079Z,-3.20
